Jamestown, TN (38556)

9:52 PM CDT on July 26, 2016 (GMT -0500)
Highlands @ BSF | | Change Station

Elev 1637 ft 36.49 °N, 84.86 °W | Updated 6 minutes ago

Clear
Clear
77.7 °F
Feels Like 80 °F
N
2.2
Wind Variable Wind from ESE

Today
High -- | Low -- °F
--% Chance of Precip.
Yesterday
High -- | Low -- °F
Precip. -- in
Pressure 30.00 in
Visibility 10.0 miles
Clouds Clear
Heat Index 80 °F
Dew Point 72 °F
Humidity 83%
Rainfall 0.00 in
Snow Depth Not available.
5:41 AM 7:50 PM
Waning Gibbous, 48% visible
METAR KCSV 270153Z AUTO 00000KT 10SM CLR 26/22 A3008 RMK AO2 LTG DSNT S SLP159 T02560222
Pressure 30.00 in
Visibility 10.0 miles
Clouds Clear
Heat Index 80 °F
Dew Point 72 °F
Humidity 83%
Rainfall 0.00 in
Snow Depth Not available.
5:41 AM 7:50 PM
Waning Gibbous, 48% visible
METAR KCSV 270153Z AUTO 00000KT 10SM CLR 26/22 A3008 RMK AO2 LTG DSNT S SLP159 T02560222

10-Day Weather Forecast

Almanac

Astronomy

Jul. 26, 2016 Rise Set
Actual Time
Civil Twilight
Nautical Twilight
Astronomical Twilight
Moon
Length of Visible Light
Length of Day
Tomorrow will be .
, % of the Moon is Illuminated

Today's Extremes

State Highs State Lows

Community

WunderPhotos

Upload Photos

1,927,784 photos uploaded!

WunderBlog® & News

Nearby

Air Quality

  Air Quality AQ Index Pollutant
Not available.

Snow Depth

Station Depth Elevation

Earthquake Activity

City Distance Mag. Time & Date
Minimum magnitude displayed is 2.5.

Coastal Water Temperatures

Place Temperature

Stations

Nearby Weather Stations

Station Location Temp. Windchill Dew Point Humidity Wind Precip. Elev Updated Type
                   

Watches & Warnings

There are currently no watches in effect.